Nassau, New York
Current Conditions -  °F | °C
As of 8:54 PM on Sunday 23 Nov 2014 (Local Time) from KPSF Reporting Station
Clear Clear  
Wind Chill: 36°   Ceiling: Unl
Heat Index: 36°   Visibility: 9mi
Dew Point: 33°   Wind: 0mph
Humidity: 89%   Direction: NA
Pressure: 30.05"   Gusts: NA
Location:  42.52°N, 73.61°W
Report Text: KPSF 240154Z AUTO 00000KT 9SM CLR 02/01 A3005 RMK AO2 SLP182 T00220006
Loading
Personal Weather Stations






























Interactive Weather Map New forecast layout! Learn more

10-Day Weather Forecast

Advertisements
Track Severe Weather on mobile